FIMPFMEP

Guest
Details From FIMP - SIR SEEWOOSAGUR RAMGOOLAM INTL
To FMEP - ST PIERRE PIERREFONDS
Flight Number -
Tags decoded
Created
Modified
Stats Distance 140 nm / 260 km
Max Altitude 0 ft / 0 m
Waypoints 4
Social Downloads 0
Likes 0
Share

Download

Looking for another format? Having issues loading an existing format? Contact us
Advertisement - Login to hide

Notes

Requested: FIMP PLS03 PASAR 20 FMEP Unmatched points: 20

Route

FIMP PLS03 PASAR FMEP

ID Type Via Altitude (ft/m) Position (lat/lon) Dist (leg/tot) Name
O FIMP APT - 0 / 0 -20.43023 / 57.68360 - / 0 nm SIR SEEWOOSAGUR RAMGOOLAM INTL
PLS03 FIX - 0 / 0 -20.44437 / 57.70893 1 / 1 nm
PASAR FIX - 0 / 0 -21.01800 / 56.39944 81 / 82 nm
O FMEP APT - 0 / 0 -21.32004 / 55.42358 57 / 140 nm ST PIERRE PIERREFONDS

Altitude Profile

Advertisement - Login to hide

FIMP

Details ICAO FIMP (MRU)
Name Sir Seewoosagur Ramgoolam Intl
Region Mauritius
Timezone Indian/Mauritius (UTC+4.0)
Stats Elevation 183 ft / 56 m (AMSL)
Location -20.430200° 57.683600°
Runways 1
Magnetic Variation 18.218° W

METAR

FIMP 282300Z 11010G25KT 9999 VCSH BKN016 SCT050 22/19 Q1023

Decode

TAF

TAF FIMP 281700Z 2818/3000 12018G35KT 7000 -RA FEW008 BKN015 TEMPO 2818/2903 2000 +RA FEW005 BKN013 PROB30 TEMPO 2910/3000 7000 -SHRA FEW010 SCT015 BKN050

Decode

Departure Runways

ID Width Length Bearing (true/mag) Surface Threshold Overrun Markings Lighting
14 148 ft / 45 m 11,073 ft / 3,375 m 117.17° / 135.39° ASPHALT 1,086 ft / 331 m 203 ft / 62 m PREC-APP CENTERLINE EDGE THRESHOLD ALSF-I
32 148 ft / 45 m 11,073 ft / 3,375 m 297.17° / 315.38° ASPHALT 0 ft / 0 m 197 ft / 60 m PREC-APP CENTERLINE EDGE THRESHOLD ODALS

FMEP

Details ICAO FMEP (ZSE)
Name ST PIERRE PIERREFONDS
Region Comoros, Mayotte, Réunion and Madagascar
Timezone Unknown
Stats Elevation 56 ft / 17 m (AMSL)
Location -21.319400° 55.422600°
Runways 1
Magnetic Variation 19.408° W

METAR

FMEP 282330Z AUTO 04005KT 9999 ///CB 19/15 Q1021

Decode

TAF

Not found

Destination Runways

ID Width Length Bearing (true/mag) Surface Threshold Overrun Markings Lighting
15 133 ft / 41 m 6,900 ft / 2,103 m 129.13° / 148.54° ASPHALT 0 ft / 0 m 0 ft / 0 m APP
33 133 ft / 41 m 6,900 ft / 2,103 m 309.12° / 328.53° ASPHALT 0 ft / 0 m 0 ft / 0 m APP

Popular Alternatives